Time;durP1;ratioP1;P1;durP2;ratioP2;P2;SDS_P1;SDS_P2;PMS_P1;PMS_P2;Temp;Humidity;BMP_temperature;BMP_pressure;BME280_temperature;BME280_humidity;BME280_pressure;Samples;Min_cycle;Max_cycle;Signal;HPM_P1;HPM_P2
2022/08/15 00:02:23;;;;;;;25.55;22.95;;;;;;;22.16;100.00;-6996.94;5113909;28;20191;-63
2022/08/15 00:04:50;;;;;;;35.45;29.70;;;;;;;22.16;100.00;-7646.47;5112682;28;20204;-65
2022/08/15 00:07:19;;;;;;;58.67;36.72;;;;;;;22.17;100.00;-8296.00;5113441;28;20188;-65
2022/08/15 00:09:46;;;;;;;60.85;43.17;;;;;;;22.22;100.00;-8945.72;5113092;28;20186;-63
2022/08/15 00:12:13;;;;;;;61.72;43.53;;;;;;;22.15;100.00;-9918.81;5095323;28;20578;-64
2022/08/15 00:14:40;;;;;;;58.60;44.22;;;;;;;22.18;100.00;-10243.66;5113218;28;20230;-64
2022/08/15 00:17:09;;;;;;;54.58;39.22;;;;;;;22.17;100.00;-9919.03;5113383;28;20180;-63
2022/08/15 00:19:39;;;;;;;48.20;36.08;;;;;;;22.23;100.00;-9270.47;5113506;28;20538;-64
2022/08/15 00:22:08;;;;;;;48.33;33.17;;;;;;;22.14;100.00;-7971.09;5113386;28;20592;-63
2022/08/15 00:24:38;;;;;;;32.97;27.55;;;;;;;22.31;100.00;-6672.88;5113055;28;20600;-64
2022/08/15 00:27:08;;;;;;;29.08;25.98;;;;;;;22.39;100.00;-5373.16;5112895;28;20660;-64
2022/08/15 00:29:36;;;;;;;26.55;23.88;;;;;;;22.40;100.00;-4397.78;5112962;28;20663;-63
2022/08/15 00:32:04;;;;;;;26.00;23.20;;;;;;;22.33;100.00;-3747.31;5112708;28;20183;-63
2022/08/15 00:34:31;;;;;;;24.42;22.05;;;;;;;22.45;100.00;-2120.56;5113102;28;20203;-63
2022/08/15 00:36:58;;;;;;;24.67;22.30;;;;;;;22.45;100.00;-1795.09;5113063;28;20270;-64
2022/08/15 00:39:27;;;;;;;23.58;21.42;;;;;;;22.28;100.00;-1144.72;5112932;28;20214;-63
2022/08/15 00:42:00;;;;;;;21.88;19.77;;;;;;;22.41;100.00;-1469.75;5112606;28;20214;-64
2022/08/15 00:44:31;;;;;;;22.98;20.90;;;;;;;22.36;100.00;-1795.34;5112705;28;20206;-63
2022/08/15 00:47:02;;;;;;;22.10;20.30;;;;;;;22.23;100.00;-2446.34;5112773;28;20187;-64
2022/08/15 00:49:32;;;;;;;21.35;19.65;;;;;;;22.35;100.00;-3747.31;5112610;28;20175;-63
2022/08/15 00:52:02;;;;;;;20.60;18.60;;;;;;;22.32;100.00;-3422.09;5112801;28;20206;-63
2022/08/15 00:54:34;;;;;;;18.30;16.88;;;;;;;22.18;100.00;-2771.69;5112682;28;20209;-63
2022/08/15 00:57:06;;;;;;;16.58;15.50;;;;;;;22.36;100.00;-2446.13;5112289;28;20194;-64
2022/08/15 00:59:36;;;;;;;15.30;14.35;;;;;;;22.36;100.00;-2120.75;5112630;28;20207;-63
2022/08/15 01:02:11;;;;;;;15.02;14.25;;;;;;;22.35;100.00;-1144.47;5112444;28;20179;-63
2022/08/15 01:04:39;;;;;;;15.27;14.35;;;;;;;22.16;100.00;-168.88;5112679;28;20577;-63
2022/08/15 01:07:06;;;;;;;14.90;14.00;;;;;;;22.17;100.00;-819.72;5112319;28;20194;-63
2022/08/15 01:09:35;;;;;;;14.50;13.50;;;;;;;22.31;100.00;-1470.03;5112362;28;20175;-64
2022/08/15 01:12:08;;;;;;;14.68;13.80;;;;;;;22.29;100.00;-1144.66;5112414;28;20187;-64
2022/08/15 01:14:36;;;;;;;14.05;13.23;;;;;;;22.32;100.00;-493.53;5112194;28;20231;-64
2022/08/15 01:17:05;;;;;;;14.88;13.98;;;;;;;22.15;100.00;156.59;5112139;28;20210;-63
2022/08/15 01:19:37;;;;;;;13.43;12.65;;;;;;;22.36;100.00;1134.81;5112027;28;20207;-64
2022/08/15 01:22:28;;;;;;;12.88;12.25;;;;;;;22.32;100.00;1786.03;5112175;28;20187;-63
2022/08/15 01:25:02;;;;;;;13.90;13.30;;;;;;;22.21;100.00;808.06;5112061;28;20190;-64
2022/08/15 01:27:35;;;;;;;13.30;12.65;;;;;;;22.21;100.00;-819.53;5112179;28;20183;-65
2022/08/15 01:30:06;;;;;;;13.30;12.50;;;;;;;22.18;100.00;-2446.44;5112236;28;20219;-64
2022/08/15 01:32:33;;;;;;;15.23;14.30;;;;;;;22.01;100.00;-3747.19;5112250;28;20314;-64
2022/08/15 01:35:03;;;;;;;14.80;13.88;;;;;;;22.12;100.00;-4397.41;5112067;28;20195;-64
2022/08/15 01:37:31;;;;;;;15.48;14.57;;;;;;;22.01;100.00;-5047.16;5112231;28;20298;-65
2022/08/15 01:40:04;;;;;;;16.35;14.95;;;;;;;22.05;100.00;-6021.94;5112063;28;20203;-65
2022/08/15 01:42:37;;;;;;;18.38;16.55;;;;;;;22.02;100.00;-6346.63;5112491;28;20565;-64
2022/08/15 01:45:08;;;;;;;18.90;17.48;;;;;;;21.96;100.00;-8294.38;5111985;28;20480;-63
2022/08/15 01:47:42;;;;;;;20.50;18.95;;;;;;;21.82;100.00;-8942.25;5111744;28;20188;-63
2022/08/15 01:50:12;;;;;;;22.40;20.17;;;;;;;21.94;100.00;-9916.66;5111973;28;20186;-63
2022/08/15 01:52:44;;;;;;;21.10;19.45;;;;;;;21.89;100.00;-10889.13;5111967;28;20203;-63
2022/08/15 01:55:15;;;;;;;22.25;20.05;;;;;;;21.84;100.00;-11212.78;5112021;28;20187;-65
2022/08/15 01:57:42;;;;;;;21.25;19.45;;;;;;;21.86;100.00;-12185.59;5111716;28;20266;-63
2022/08/15 02:00:12;;;;;;;20.90;19.10;;;;;;;21.87;100.00;-11537.38;5111982;28;20203;-64
2022/08/15 02:02:39;;;;;;;19.98;18.42;;;;;;;21.90;100.00;-11861.97;5111978;28;20184;-64
2022/08/15 02:05:07;;;;;;;19.30;17.60;;;;;;;21.86;100.00;-11861.50;5111907;28;20190;-63
2022/08/15 02:07:34;;;;;;;18.60;17.15;;;;;;;21.95;100.00;-11538.34;5111567;28;20183;-64
2022/08/15 02:10:02;;;;;;;18.05;16.85;;;;;;;21.94;100.00;-11538.28;5111611;28;20270;-63
2022/08/15 02:12:32;;;;;;;17.40;15.75;;;;;;;21.98;100.00;-10890.19;5112172;28;20187;-64
2022/08/15 02:15:01;;;;;;;15.85;14.82;;;;;;;21.88;100.00;-10564.78;5111442;28;20231;-64
2022/08/15 02:17:29;;;;;;;16.40;15.30;;;;;;;21.94;100.00;-11214.03;5111671;28;20209;-64
2022/08/15 02:19:56;;;;;;;16.88;15.68;;;;;;;21.97;100.00;-10890.09;5111404;28;20203;-64
2022/08/15 02:22:26;;;;;;;16.25;15.18;;;;;;;22.05;100.00;-9593.31;5111893;28;20557;-64
2022/08/15 02:24:54;;;;;;;16.33;15.10;;;;;;;22.06;100.00;-7970.53;5111737;28;20180;-63
2022/08/15 02:27:21;;;;;;;16.73;15.55;;;;;;;22.04;100.00;-7645.69;5111493;28;20179;-63
2022/08/15 02:29:49;;;;;;;15.32;14.27;;;;;;;22.26;100.00;-6997.50;5114535;28;20188;-63
2022/08/15 02:32:18;;;;;;;14.43;13.73;;;;;;;22.23;100.00;-5047.69;5115223;28;20496;-64
2022/08/15 02:34:47;;;;;;;15.02;14.23;;;;;;;22.23;100.00;-5372.69;5115637;28;20335;-62
2022/08/15 02:37:18;;;;;;;15.32;14.23;;;;;;;22.30;100.00;-5372.91;5114963;28;20237;-64
2022/08/15 02:39:47;;;;;;;15.27;14.32;;;;;;;22.33;100.00;-4722.84;5115234;28;20203;-64
2022/08/15 02:42:15;;;;;;;15.30;14.50;;;;;;;22.32;100.00;-4072.50;5114972;28;20187;-63
2022/08/15 02:44:42;;;;;;;16.33;15.32;;;;;;;22.33;100.00;-3747.31;5115232;28;20241;-64
2022/08/15 02:47:14;;;;;;;16.90;15.75;;;;;;;22.30;100.00;-3747.31;5114952;28;20187;-64
2022/08/15 02:49:43;;;;;;;17.00;16.05;;;;;;;22.09;100.00;-6671.78;5114987;28;20179;-64
2022/08/15 02:52:11;;;;;;;17.25;16.13;;;;;;;21.98;100.00;-9268.13;5114748;28;20192;-63
2022/08/15 02:54:39;;;;;;;16.65;15.65;;;;;;;21.89;100.00;-11537.63;5114806;28;20187;-63
2022/08/15 02:57:09;;;;;;;17.17;16.13;;;;;;;21.76;100.00;-12832.38;5115043;28;20707;-63
2022/08/15 02:59:36;;;;;;;16.65;15.68;;;;;;;21.88;100.00;-13482.19;5115288;28;20217;-64
2022/08/15 03:02:04;;;;;;;17.05;15.80;;;;;;;21.84;100.00;-13805.53;5114701;28;20186;-64
2022/08/15 03:04:34;;;;;;;16.95;15.85;;;;;;;21.81;100.00;-14452.94;5114599;28;20189;-63
2022/08/15 03:07:01;;;;;;;17.98;16.50;;;;;;;21.84;100.00;-14129.47;5114688;28;20180;-63
2022/08/15 03:09:28;;;;;;;18.38;17.15;;;;;;;21.90;100.00;-14130.41;5114607;28;20187;-63
2022/08/15 03:11:57;;;;;;;19.75;17.98;;;;;;;21.91;100.00;-14130.66;5114557;28;20190;-64
2022/08/15 03:14:25;;;;;;;20.20;18.70;;;;;;;21.78;100.00;-13480.59;5114297;28;20254;-64
2022/08/15 03:16:52;;;;;;;20.70;19.02;;;;;;;21.87;100.00;-13482.09;5114559;28;20218;-64
2022/08/15 03:19:25;;;;;;;20.63;18.73;;;;;;;21.94;100.00;-13159.09;5114456;28;20202;-63
2022/08/15 03:21:54;;;;;;;23.38;21.23;;;;;;;21.96;100.00;-13159.41;5114470;28;20652;-64
2022/08/15 03:24:23;;;;;;;24.58;22.05;;;;;;;21.77;100.00;-13480.44;5114354;28;20187;-64
2022/08/15 03:26:50;;;;;;;24.52;22.30;;;;;;;21.96;100.00;-13483.47;5114449;28;20695;-63
2022/08/15 03:29:20;;;;;;;25.50;23.05;;;;;;;21.91;100.00;-14130.66;5114425;28;20206;-63
2022/08/15 03:31:50;;;;;;;26.45;24.08;;;;;;;21.75;100.00;-14127.94;5114618;28;20187;-63
2022/08/15 03:34:19;;;;;;;26.42;23.80;;;;;;;21.98;100.00;-14455.84;5114322;28;20531;-64
2022/08/15 03:36:46;;;;;;;26.80;24.40;;;;;;;21.84;100.00;-14453.47;5114521;28;20554;-64
2022/08/15 03:39:15;;;;;;;28.55;25.48;;;;;;;21.91;100.00;-14454.53;5113835;28;20635;-64
2022/08/15 03:41:42;;;;;;;28.17;25.30;;;;;;;22.03;100.00;-13808.59;5113735;28;20203;-63
2022/08/15 03:44:09;;;;;;;27.00;24.50;;;;;;;22.00;100.00;-14456.19;5113740;28;20193;-64
2022/08/15 03:46:36;;;;;;;26.77;24.05;;;;;;;21.97;100.00;-15103.44;5114048;28;20183;-64
2022/08/15 03:49:04;;;;;;;26.52;23.80;;;;;;;21.76;100.00;-16394.66;5114042;28;20207;-63
2022/08/15 03:51:31;;;;;;;23.88;21.80;;;;;;;21.98;100.00;-16722.88;5095848;28;20179;-64
2022/08/15 03:54:00;;;;;;;25.23;21.40;;;;;;;22.13;100.00;-15430.38;5113428;28;20217;-64
2022/08/15 03:56:30;;;;;;;24.65;20.52;;;;;;;22.10;100.00;-15105.88;5113628;28;20183;-63
2022/08/15 03:58:58;;;;;;;20.00;18.48;;;;;;;22.11;100.00;-14134.00;5113820;28;20205;-63
2022/08/15 04:01:27;;;;;;;20.10;18.50;;;;;;;22.24;100.00;-12839.41;5113361;28;20208;-64
2022/08/15 04:03:54;;;;;;;18.63;17.40;;;;;;;22.23;100.00;-12514.97;5113241;28;20197;-63
2022/08/15 04:06:24;;;;;;;19.05;17.30;;;;;;;22.32;100.00;-11543.16;5113349;28;20184;-63
2022/08/15 04:08:53;;;;;;;18.63;16.98;;;;;;;22.44;100.00;-10246.34;5113282;28;20187;-63
2022/08/15 04:11:21;;;;;;;18.42;16.60;;;;;;;22.44;100.00;-9921.69;5113132;28;20554;-64
2022/08/15 04:13:49;;;;;;;18.00;16.70;;;;;;;22.49;100.00;-8948.06;5113497;28;20582;-64
2022/08/15 04:16:17;;;;;;;18.60;16.88;;;;;;;22.57;100.00;-8299.00;5113440;28;20191;-63
2022/08/15 04:18:44;;;;;;;17.30;15.65;;;;;;;22.62;100.00;-6349.31;5113147;28;20202;-65
2022/08/15 04:21:12;;;;;;;18.83;16.25;;;;;;;22.62;100.00;-5699.03;5113139;28;20207;-64
2022/08/15 04:23:41;;;;;;;18.27;16.75;;;;;;;22.65;100.00;-6349.44;5112966;28;20282;-64
2022/08/15 04:26:08;;;;;;;16.50;15.55;;;;;;;22.71;100.00;-5374.13;5113256;28;20194;-63
2022/08/15 04:28:35;;;;;;;17.20;15.90;;;;;;;22.80;100.00;-3096.50;5112836;28;20187;-64
2022/08/15 04:31:06;;;;;;;17.75;16.08;;;;;;;22.79;100.00;-1794.16;5113137;28;20184;-63
2022/08/15 04:33:34;;;;;;;19.98;16.35;;;;;;;22.81;100.00;-1468.44;5113378;28;20183;-64
2022/08/15 04:36:04;;;;;;;18.40;16.38;;;;;;;22.87;100.00;-1142.47;5113008;28;20190;-63
2022/08/15 04:38:32;;;;;;;17.05;15.85;;;;;;;22.88;100.00;-1142.47;5112774;28;20190;-64
2022/08/15 04:41:01;;;;;;;17.55;15.75;;;;;;;22.94;100.00;161.22;5112903;28;20257;-63
2022/08/15 04:43:28;;;;;;;18.13;16.52;;;;;;;22.98;100.00;1465.50;5112994;28;20211;-64
2022/08/15 04:45:55;;;;;;;16.88;15.50;;;;;;;23.10;100.00;2445.03;5113039;28;20245;-64
2022/08/15 04:48:25;;;;;;;16.08;15.10;;;;;;;23.13;100.00;5382.88;5112817;28;20581;-63
2022/08/15 04:50:54;;;;;;;16.95;15.85;;;;;;;23.01;100.00;7340.59;5112600;28;20180;-63
2022/08/15 04:53:24;;;;;;;17.83;16.20;;;;;;;23.09;100.00;6362.00;5112794;28;20190;-63
2022/08/15 04:55:52;;;;;;;18.35;16.50;;;;;;;23.05;100.00;8648.34;5112764;28;20179;-63
2022/08/15 04:58:19;;;;;;;17.95;15.75;;;;;;;23.23;100.00;10613.84;5112852;28;20203;-63
2022/08/15 05:00:59;;;;;;;16.58;15.30;;;;;;;23.41;100.00;13564.09;5112969;28;20213;-64
2022/08/15 05:03:27;;;;;;;16.38;14.77;;;;;;;23.59;100.00;15863.00;5112787;28;20190;-65
2022/08/15 05:05:56;;;;;;;18.15;15.23;;;;;;;23.72;100.00;19475.63;5112319;28;20193;-64
2022/08/15 05:08:26;;;;;;;17.88;15.98;;;;;;;23.60;100.00;22754.59;5112619;28;20188;-63
2022/08/15 05:10:58;;;;;;;17.02;15.23;;;;;;;23.80;100.00;22762.84;5112925;28;20554;-63
2022/08/15 05:13:28;;;;;;;18.00;16.45;;;;;;;23.88;100.00;24410.13;5112497;28;20327;-63
2022/08/15 05:15:57;;;;;;;17.02;15.23;;;;;;;23.95;100.00;27703.16;5112669;28;20188;-64
2022/08/15 05:18:24;;;;;;;18.58;15.55;;;;;;;24.12;100.00;32324.63;5112546;28;20190;-64
2022/08/15 05:20:53;;;;;;;16.95;15.88;;;;;;;24.12;100.00;36283.63;5112606;28;20211;-64
2022/08/15 05:23:21;;;;;;;15.65;13.75;;;;;;;24.03;100.00;38259.13;5112829;28;20187;-63
2022/08/15 05:25:52;;;;;;;15.30;14.07;;;;;;;24.23;100.00;40255.06;5112208;28;20288;-63
2022/08/15 05:28:20;;;;;;;15.88;14.60;;;;;;;24.31;100.00;44891.97;5112104;28;20184;-64
2022/08/15 05:30:48;;;;;;;19.27;13.85;;;;;;;24.29;100.00;46214.84;5094116;28;20179;-63
2022/08/15 05:33:19;;;;;;;12.88;11.88;;;;;;;24.37;100.00;60494.25;5112155;28;20184;-63
2022/08/15 05:35:49;;;;;;;12.68;11.88;;;;;;;24.36;100.00;74157.75;5112454;28;20187;-63
2022/08/15 05:38:21;;;;;;;11.43;10.55;;;;;;;24.55;100.00;79195.50;5112551;28;20274;-63
2022/08/15 05:41:06;;;;;;;12.15;11.48;;;;;;;24.70;100.00;90611.56;5112001;28;20588;-64
2022/08/15 05:43:44;;;;;;;11.68;11.05;;;;;;;24.70;100.00;92961.66;5111929;28;20270;-64
2022/08/15 05:46:24;;;;;;;11.68;11.27;;;;;;;24.58;100.00;94959.56;5112270;28;20598;-64
2022/08/15 05:48:59;;;;;;;13.32;12.35;;;;;;;24.54;100.00;89581.06;5112505;28;20652;-64
2022/08/15 05:51:33;;;;;;;12.75;12.15;;;;;;;24.45;100.00;84202.97;5112228;28;20630;-63
2022/08/15 05:54:13;;;;;;;14.07;12.18;;;;;;;24.33;100.00;77828.53;5112258;28;20187;-64
2022/08/15 05:56:50;;;;;;;12.75;12.00;;;;;;;24.47;100.00;77178.38;5112085;28;20189;-64
2022/08/15 05:59:19;;;;;;;13.50;12.57;;;;;;;24.49;100.00;86889.66;5112560;28;20683;-63
2022/08/15 06:01:50;;;;;;;13.73;12.73;;;;;;;25.17;100.00;133274.78;5112470;28;20218;-63
2022/08/15 06:04:23;;;;;;;12.68;11.98;;;;;;;25.22;100.00;152354.53;5114333;28;20279;-63
2022/08/15 06:06:51;;;;;;;13.48;11.90;;;;;;;25.26;100.00;152391.47;5115934;28;20187;-64
2022/08/15 06:09:35;;;;;;;10.82;10.27;;;;;;;25.44;100.00;152437.50;5097774;28;20282;-63
2022/08/15 06:12:09;;;;;;;12.30;11.60;;;;;;;25.49;100.00;152450.28;5115797;28;20176;-64
2022/08/15 06:14:40;;;;;;;11.68;10.85;;;;;;;25.52;100.00;152457.94;5115718;28;20235;-64
2022/08/15 06:17:15;;;;;;;11.70;11.00;;;;;;;25.60;100.00;152478.41;5115614;28;20191;-64
2022/08/15 06:19:46;;;;;;;11.80;11.30;;;;;;;25.70;100.00;152504.00;5115818;28;20179;-64
2022/08/15 06:22:27;;;;;;;11.05;10.55;;;;;;;25.79;100.00;152527.00;5098358;28;20573;-63
2022/08/15 06:25:09;;;;;;;11.85;10.55;;;;;;;25.87;100.00;152546.16;5115833;28;20552;-64
2022/08/15 06:27:48;;;;;;;12.48;11.38;;;;;;;25.95;100.00;152565.31;5115557;28;20248;-64
2022/08/15 06:30:19;;;;;;;11.75;11.13;;;;;;;26.19;100.00;152627.97;5115530;28;20244;-65
2022/08/15 06:32:55;;;;;;;11.70;10.90;;;;;;;26.38;100.00;152675.34;5115832;28;20322;-64
2022/08/15 06:35:33;;;;;;;14.50;13.60;;;;;;;26.53;100.00;152712.38;5115781;28;20198;-65
2022/08/15 06:38:10;;;;;;;11.50;10.82;;;;;;;26.85;100.00;152793.03;5115736;28;20650;-64
2022/08/15 06:40:49;;;;;;;12.40;11.20;;;;;;;27.24;100.00;152892.81;5115498;28;20661;-64
2022/08/15 06:43:16;;;;;;;10.80;10.20;;;;;;;27.32;100.00;152913.28;5115695;28;20621;-64
2022/08/15 06:45:48;;;;;;;11.27;10.63;;;;;;;27.41;100.00;152936.31;5115703;28;20183;-64
2022/08/15 06:48:19;;;;;;;11.95;11.27;;;;;;;27.14;100.00;152867.22;5115527;28;20191;-65
2022/08/15 06:50:49;;;;;;;12.50;11.43;;;;;;;27.29;100.00;152905.56;5115548;28;20183;-64
2022/08/15 06:53:23;;;;;;;12.13;11.50;;;;;;;27.20;100.00;152882.56;5097070;28;20641;-64
2022/08/15 06:55:58;;;;;;;11.57;10.93;;;;;;;27.35;100.00;152919.66;5115480;28;20175;-65
2022/08/15 06:58:37;;;;;;;11.13;10.60;;;;;;;27.43;100.00;152941.41;5115139;28;20233;-65
2022/08/15 07:01:14;;;;;;;11.50;11.00;;;;;;;27.48;100.00;152954.25;5114996;28;20248;-64
2022/08/15 07:03:48;;;;;;;11.57;10.73;;;;;;;27.90;100.00;153060.47;5114771;28;20187;-66
2022/08/15 07:06:19;;;;;;;11.85;11.02;;;;;;;27.99;100.00;153082.22;5115031;28;20261;-64
2022/08/15 07:08:55;;;;;;;11.65;10.95;;;;;;;28.14;100.00;153121.94;5114569;28;20187;-65
2022/08/15 07:11:30;;;;;;;11.15;10.38;;;;;;;28.40;100.00;153187.22;5115124;28;20187;-65
2022/08/15 07:14:10;;;;;;;10.77;10.15;;;;;;;28.63;100.00;153243.56;5113989;28;20608;-65
2022/08/15 07:16:45;;;;;;;9.43;9.05;;;;;;;28.29;100.00;153157.78;5114893;28;20206;-64
2022/08/15 07:19:14;;;;;;;10.05;9.38;;;;;;;28.04;100.00;153095.03;5115064;28;20598;-67
2022/08/15 07:21:41;;;;;;;11.20;10.30;;;;;;;28.08;100.00;153106.53;5114506;28;20252;-64
2022/08/15 07:24:10;;;;;;;11.15;10.43;;;;;;;27.90;100.00;153059.16;5114295;28;20184;-64
2022/08/15 07:26:47;;;;;;;12.68;11.90;;;;;;;27.83;100.00;153041.28;5114702;28;20179;-65
2022/08/15 07:29:25;;;;;;;13.15;12.32;;;;;;;27.68;100.00;153005.44;5114898;28;20699;-65
2022/08/15 07:31:59;;;;;;;12.27;11.45;;;;;;;27.86;100.00;153048.94;5114852;28;20211;-64
2022/08/15 07:34:26;;;;;;;11.50;10.57;;;;;;;28.15;100.00;153123.22;5114537;28;20188;-64
2022/08/15 07:36:57;;;;;;;10.20;9.80;;;;;;;28.22;100.00;153141.13;5114768;28;20209;-64
2022/08/15 07:39:28;;;;;;;10.38;9.85;;;;;;;28.20;100.00;153136.03;5114509;28;20226;-65
2022/08/15 07:41:56;;;;;;;9.98;9.48;;;;;;;27.99;100.00;153083.50;5114013;28;20203;-64
2022/08/15 07:44:27;;;;;;;9.77;9.38;;;;;;;27.66;100.00;152999.03;5114661;28;20210;-64
2022/08/15 07:46:58;;;;;;;10.40;9.77;;;;;;;27.51;100.00;152960.63;5114018;28;20187;-65
2022/08/15 07:49:27;;;;;;;10.07;9.65;;;;;;;27.04;100.00;152841.59;5114250;28;20662;-65
2022/08/15 07:52:07;;;;;;;10.50;9.65;;;;;;;27.30;100.00;152908.13;5113795;28;20184;-64
2022/08/15 07:54:46;;;;;;;10.77;10.02;;;;;;;26.98;100.00;152827.56;5113988;28;20191;-64
2022/08/15 07:57:25;;;;;;;10.75;10.35;;;;;;;26.96;100.00;152821.16;5113761;28;20509;-64
2022/08/15 08:00:19;;;;;;;10.25;9.55;;;;;;;26.92;100.00;152810.91;5113994;28;20188;-65
2022/08/15 08:02:53;;;;;;;10.00;9.60;;;;;;;26.70;100.00;152757.16;5114308;28;20290;-64
2022/08/15 08:05:24;;;;;;;9.13;8.48;;;;;;;26.70;100.00;152755.88;5113437;28;20273;-64
2022/08/15 08:07:53;;;;;;;8.68;8.38;;;;;;;26.80;100.00;152782.75;5113823;28;20192;-64
2022/08/15 08:10:25;;;;;;;9.88;9.27;;;;;;;26.94;100.00;152817.34;5113426;28;20190;-64
2022/08/15 08:13:09;;;;;;;9.25;8.55;;;;;;;27.09;100.00;152854.41;5113436;28;20193;-64
2022/08/15 08:15:44;;;;;;;9.50;9.10;;;;;;;27.14;100.00;152868.50;5113767;28;20656;-64
2022/08/15 08:18:20;;;;;;;9.85;9.27;;;;;;;27.05;100.00;152844.19;5114339;28;20276;-66
2022/08/15 08:20:53;;;;;;;9.43;9.02;;;;;;;26.98;100.00;152826.28;5113365;28;20266;-65
2022/08/15 08:23:27;;;;;;;9.88;9.27;;;;;;;26.79;100.00;152780.19;5113436;28;20626;-65
2022/08/15 08:26:07;;;;;;;9.65;9.25;;;;;;;27.13;100.00;152865.94;5112087;28;20190;-66
2022/08/15 08:28:42;;;;;;;9.75;9.15;;;;;;;27.23;100.00;152890.25;5113281;28;20245;-64
2022/08/15 08:31:21;;;;;;;10.90;10.10;;;;;;;27.51;100.00;152960.63;5113060;28;20231;-65
2022/08/15 08:34:05;;;;;;;9.23;8.82;;;;;;;27.90;100.00;153059.16;5113431;28;20191;-65
2022/08/15 08:36:40;;;;;;;10.38;9.85;;;;;;;28.02;100.00;153089.88;5112894;28;20219;-63
2022/08/15 08:39:26;;;;;;;8.43;8.02;;;;;;;28.34;100.00;153171.88;5113020;28;20640;-64
2022/08/15 08:41:59;;;;;;;8.20;7.70;;;;;;;28.56;100.00;153228.19;5112441;28;20210;-63
2022/08/15 08:44:43;;;;;;;8.55;8.02;;;;;;;28.78;100.00;153282.00;5112918;28;20244;-64
2022/08/15 08:47:24;;;;;;;7.63;7.15;;;;;;;29.16;100.00;153379.34;5112738;28;20190;-65
2022/08/15 08:50:04;;;;;;;8.02;7.63;;;;;;;28.92;100.00;153319.16;5113169;28;20187;-64
2022/08/15 08:52:41;;;;;;;10.20;9.27;;;;;;;28.90;100.00;153312.72;5112891;28;20240;-64
2022/08/15 08:55:11;;;;;;;9.52;9.02;;;;;;;28.54;100.00;153223.09;5112931;28;20182;-64
2022/08/15 08:57:43;;;;;;;10.85;10.35;;;;;;;28.18;100.00;153130.88;5112804;28;20195;-64
2022/08/15 09:00:16;;;;;;;10.30;9.57;;;;;;;27.91;100.00;153063.03;5112450;28;20186;-64
2022/08/15 09:02:48;;;;;;;11.20;10.50;;;;;;;28.12;100.00;153115.56;5112819;28;20199;-65
2022/08/15 09:05:26;;;;;;;12.02;11.05;;;;;;;28.43;100.00;153194.88;5112313;28;20195;-64
2022/08/15 09:07:58;;;;;;;11.95;11.30;;;;;;;28.40;100.00;153187.22;5112712;28;20384;-63
2022/08/15 09:10:32;;;;;;;13.15;12.40;;;;;;;28.45;100.00;153200.03;5112545;28;20179;-65
2022/08/15 09:15:49;;;;;;;11.65;10.98;;;;;;;28.52;100.00;153216.66;5112540;28;20186;-64
2022/08/15 09:18:23;;;;;;;11.38;10.88;;;;;;;28.68;100.00;153257.66;5112567;28;20191;-64
2022/08/15 09:20:50;;;;;;;12.77;12.05;;;;;;;28.46;100.00;153202.59;5112837;28;20203;-64
2022/08/15 09:23:17;;;;;;;13.23;12.43;;;;;;;28.30;100.00;153160.34;5093722;28;20223;-64
2022/08/15 09:25:55;;;;;;;12.45;11.93;;;;;;;28.31;100.00;153162.88;5112718;28;20185;-64
2022/08/15 09:28:30;;;;;;;11.93;11.23;;;;;;;28.69;100.00;153258.91;5112450;28;20187;-65
2022/08/15 09:31:05;;;;;;;9.25;8.85;;;;;;;29.20;100.00;153388.28;5112367;28;20183;-65
2022/08/15 09:34:05;;;;;;;9.93;9.32;;;;;;;29.44;100.00;153451.16;5112688;28;20266;-65
2022/08/15 09:37:06;;;;;;;9.60;9.10;;;;;;;29.36;100.00;153430.66;5112422;28;20188;-65
2022/08/15 09:40:03;;;;;;;9.85;9.15;;;;;;;29.81;100.00;153543.38;5112110;28;20209;-65
2022/08/15 09:42:48;;;;;;;9.27;8.52;;;;;;;30.10;100.00;153617.72;5116238;28;20207;-65
2022/08/15 09:45:32;;;;;;;9.13;8.52;;;;;;;30.16;100.00;153631.84;5116107;28;20189;-65
2022/08/15 09:48:23;;;;;;;8.98;8.30;;;;;;;30.40;100.00;153693.34;5116486;28;20577;-62
2022/08/15 09:51:12;;;;;;;8.45;8.00;;;;;;;30.42;100.00;153697.22;5116581;28;20192;-65
2022/08/15 09:53:51;;;;;;;9.05;8.32;;;;;;;30.77;100.00;153786.97;5116029;28;20219;-64
2022/08/15 09:56:21;;;;;;;9.63;9.32;;;;;;;30.76;100.00;153784.44;5115986;28;20187;-65
2022/08/15 09:58:54;;;;;;;9.48;8.95;;;;;;;30.71;100.00;153771.59;5116278;28;20212;-65
2022/08/15 10:01:26;;;;;;;9.98;9.68;;;;;;;30.37;100.00;153686.97;5115792;28;20184;-65
2022/08/15 10:03:58;;;;;;;9.98;9.57;;;;;;;30.57;100.00;153735.69;5116240;28;20258;-64
2022/08/15 10:06:28;;;;;;;10.27;9.63;;;;;;;30.93;100.00;153828.03;5115683;28;20187;-66
2022/08/15 10:09:12;;;;;;;9.32;8.85;;;;;;;30.88;100.00;153815.19;5116298;28;20275;-65
2022/08/15 10:11:58;;;;;;;8.93;8.63;;;;;;;31.06;100.00;153861.44;5116355;28;20198;-65
2022/08/15 10:14:29;;;;;;;8.23;7.80;;;;;;;31.19;100.00;153894.72;5115848;28;20278;-65
2022/08/15 10:16:59;;;;;;;9.07;8.68;;;;;;;31.15;100.00;153884.47;5115981;28;20181;-64
2022/08/15 10:19:31;;;;;;;9.77;9.18;;;;;;;31.13;100.00;153878.06;5115979;28;20195;-64
2022/08/15 10:22:00;;;;;;;8.55;8.18;;;;;;;31.25;100.00;153910.13;5115818;28;20204;-65
2022/08/15 10:24:32;;;;;;;8.90;8.60;;;;;;;31.23;100.00;153904.97;5115898;28;20257;-65
2022/08/15 10:27:19;;;;;;;8.77;8.48;;;;;;;31.46;100.00;153961.41;5115641;28;20179;-65
2022/08/15 10:29:50;;;;;;;9.50;8.90;;;;;;;31.11;100.00;153872.91;5115746;28;20215;-65
2022/08/15 10:32:39;;;;;;;10.02;9.40;;;;;;;31.24;100.00;153907.56;5115570;28;20594;-65
2022/08/15 10:35:17;;;;;;;9.60;9.18;;;;;;;30.82;100.00;153799.78;5115457;28;20307;-66
2022/08/15 10:37:51;;;;;;;10.57;9.93;;;;;;;30.63;100.00;153751.09;5115518;28;20175;-65
2022/08/15 10:40:36;;;;;;;9.75;9.15;;;;;;;30.87;100.00;153812.63;5115393;28;20216;-64
2022/08/15 10:43:23;;;;;;;9.07;8.43;;;;;;;31.19;100.00;153894.72;5115543;28;20653;-65
2022/08/15 10:45:59;;;;;;;10.80;10.13;;;;;;;31.68;100.00;154017.91;5115707;28;20487;-64
2022/08/15 10:48:43;;;;;;;10.00;9.55;;;;;;;32.07;100.00;154118.00;5115051;28;20226;-64
2022/08/15 10:51:22;;;;;;;9.20;8.80;;;;;;;31.93;100.00;154082.06;5115286;28;20236;-64
2022/08/15 10:54:00;;;;;;;8.65;8.05;;;;;;;31.97;100.00;154092.31;5115452;28;20194;-65
2022/08/15 10:56:32;;;;;;;9.45;8.95;;;;;;;32.22;100.00;154153.94;5115557;28;20187;-65
2022/08/15 10:59:03;;;;;;;8.52;8.13;;;;;;;32.10;100.00;154125.72;5115472;28;20226;-66
2022/08/15 11:01:32;;;;;;;8.25;7.82;;;;;;;32.14;100.00;154135.97;5114801;28;20191;-64
2022/08/15 11:04:02;;;;;;;8.70;8.40;;;;;;;32.09;100.00;154123.16;5115289;28;20704;-65
2022/08/15 11:06:31;;;;;;;7.88;7.57;;;;;;;32.01;100.00;154102.56;5115209;28;20183;-65
2022/08/15 11:09:07;;;;;;;8.07;7.78;;;;;;;32.02;100.00;154103.88;5115035;28;20634;-64
2022/08/15 11:11:39;;;;;;;8.07;7.78;;;;;;;32.05;100.00;154111.53;5114735;28;20179;-65
2022/08/15 11:14:19;;;;;;;8.05;7.75;;;;;;;31.88;100.00;154067.91;5114525;28;20230;-65
2022/08/15 11:16:51;;;;;;;8.48;8.07;;;;;;;31.73;100.00;154030.75;5114514;28;20203;-65
2022/08/15 11:19:22;;;;;;;8.90;8.52;;;;;;;31.52;100.00;153976.81;5114477;28;20183;-64
2022/08/15 11:21:55;;;;;;;8.10;7.45;;;;;;;31.47;100.00;153964.00;5114628;28;20187;-64
2022/08/15 11:24:28;;;;;;;8.48;8.18;;;;;;;31.40;100.00;153946.06;5114563;28;20279;-64
2022/08/15 11:27:10;;;;;;;7.50;7.20;;;;;;;31.56;100.00;153987.13;5114820;28;20556;-65
2022/08/15 11:29:37;;;;;;;7.80;7.60;;;;;;;31.72;100.00;154029.47;5114177;28;20190;-65
2022/08/15 11:32:05;;;;;;;7.68;7.22;;;;;;;31.78;100.00;154043.59;5114650;28;20188;-64
2022/08/15 11:34:35;;;;;;;7.43;7.22;;;;;;;31.88;100.00;154067.91;5114512;28;20180;-63
2022/08/15 11:37:09;;;;;;;8.60;8.20;;;;;;;31.81;100.00;154049.97;5114262;28;20187;-64